LNG Dream — C6VO5 — position and weather

sailwx.info

Track history (hours):
 
Tides and Currents Weather Stations Pressure Air Temp Water Temp Dewpoint Dewpoint Depression Visibility Wind Speed Wind Dir Waves Ship Positions

LNG Dream

Last reported at 2017-Nov-09 12:37 UTC. Time now 2017-Nov-18 08:37 UTC.
Position N 33°54' E 134°54'.
Warning: this ship's position is 8 days out of date.

Length 289.6 m; beam 49 m.

Type: Ship (hazmat cat A). MMSI: 309065000.

Date/timePositionNaut miles runAvg speedWind from/ knotsBaromVisibWave heightAir tempDewpointWater temp
2017-Nov-09 12:37N 33°54' E 134°54'214.1
2017-Nov-09 12:30N 33°55' E 134°54'714.6
2017-Nov-09 12:00N 34°03' E 134°55'714.6
2017-Nov-09 11:30N 34°10' E 134°57'713.6
2017-Nov-09 10:58N 34°17' E 134°58'714.7
2017-Nov-09 10:30N 34°23' E 135°01'815.6
2017-Nov-09 10:00N 34°30' E 135°06'4 8.5
2017-Nov-09 09:30N 34°34' E 135°06'712.0
2017-Nov-09 08:56N 34°37' E 134°58'613.0
2017-Nov-09 08:30N 34°34' E 134°51'612.1
2017-Nov-09 08:00N 34°34' E 134°44'611.6
2017-Nov-09 07:27N 34°40' E 134°41'4 0.1
2017-Nov-08 03:32N 34°44' E 134°41'3 9.9
2017-Nov-08 03:15N 34°41' E 134°41'410.6
2017-Nov-08 02:53N 34°37' E 134°42'4 9.4
2017-Nov-08 02:25N 34°33' E 134°45'612.4
2017-Nov-08 01:55N 34°35' E 134°52'714.2
2017-Nov-08 01:26N 34°38' E 134°60'612.8
2017-Nov-08 01:00N 34°35' E 135°06'2 4.7
2017-Nov-08 00:30N 34°33' E 135°07'4 7.5
2017-Nov-08 00:00N 34°30' E 135°05'510.2
2017-Nov-07 23:30N 34°25' E 135°03'611.7
2017-Nov-07 22:57N 34°19' E 135°00'511.9
2017-Nov-07 22:30N 34°14' E 134°60'5 9.7
2017-Nov-07 22:00N 34°09' E 135°00'4 7.6
2017-Nov-07 21:30N 34°05' E 134°60'2 4.8
2017-Nov-07 21:00N 34°03' E 134°60'712.4
2017-Nov-07 20:29N 33°57' E 134°58'  
Track history (hours):
 
Tides and Currents Weather Stations Pressure Air Temp Water Temp Dewpoint Dewpoint Depression Visibility Wind Speed Wind Dir Waves Ship Positions

LNG Dream

Last reported at 2017-Nov-09 12:37 UTC. Time now 2017-Nov-18 08:37 UTC.
Position N 33°54' E 134°54'.
Warning: this ship's position is 8 days out of date.

Length 289.6 m; beam 49 m.

Type: Ship (hazmat cat A). MMSI: 309065000.

Date/timePositionNaut miles runAvg speedWind from/ knotsBaromVisibWave heightAir tempDewpointWater temp
2017-Nov-09 12:37N 33°54' E 134°54'214.1
2017-Nov-09 12:30N 33°55' E 134°54'714.6
2017-Nov-09 12:00N 34°03' E 134°55'714.6
2017-Nov-09 11:30N 34°10' E 134°57'713.6
2017-Nov-09 10:58N 34°17' E 134°58'714.7
2017-Nov-09 10:30N 34°23' E 135°01'815.6
2017-Nov-09 10:00N 34°30' E 135°06'4 8.5
2017-Nov-09 09:30N 34°34' E 135°06'712.0
2017-Nov-09 08:56N 34°37' E 134°58'613.0
2017-Nov-09 08:30N 34°34' E 134°51'612.1
2017-Nov-09 08:00N 34°34' E 134°44'611.6
2017-Nov-09 07:27N 34°40' E 134°41'4 0.1
2017-Nov-08 03:32N 34°44' E 134°41'3 9.9
2017-Nov-08 03:15N 34°41' E 134°41'410.6
2017-Nov-08 02:53N 34°37' E 134°42'4 9.4
2017-Nov-08 02:25N 34°33' E 134°45'612.4
2017-Nov-08 01:55N 34°35' E 134°52'714.2
2017-Nov-08 01:26N 34°38' E 134°60'612.8
2017-Nov-08 01:00N 34°35' E 135°06'2 4.7
2017-Nov-08 00:30N 34°33' E 135°07'4 7.5
2017-Nov-08 00:00N 34°30' E 135°05'510.2
2017-Nov-07 23:30N 34°25' E 135°03'611.7
2017-Nov-07 22:57N 34°19' E 135°00'511.9
2017-Nov-07 22:30N 34°14' E 134°60'5 9.7
2017-Nov-07 22:00N 34°09' E 135°00'4 7.6
2017-Nov-07 21:30N 34°05' E 134°60'2 4.8
2017-Nov-07 21:00N 34°03' E 134°60'712.4
2017-Nov-07 20:29N 33°57' E 134°58'  

Dump ship's entire track history